createdAt,value
2017-04-02T00:00:13.214Z,0
2017-04-02T00:00:45.510Z,0
2017-04-02T00:01:17.814Z,0
2017-04-02T00:01:50.061Z,0
2017-04-02T00:02:22.335Z,0
2017-04-02T00:02:54.584Z,0
2017-04-02T00:03:26.812Z,0
2017-04-02T00:03:59.054Z,0
2017-04-02T00:04:31.311Z,0
2017-04-02T00:05:03.549Z,0
2017-04-02T00:05:35.807Z,0
2017-04-02T00:06:08.984Z,0
2017-04-02T00:06:41.227Z,0
2017-04-02T00:07:13.455Z,0
2017-04-02T00:07:46.362Z,0
2017-04-02T00:08:18.618Z,0
2017-04-02T00:08:51.806Z,0
2017-04-02T00:09:24.043Z,0
2017-04-02T00:09:56.323Z,0
2017-04-02T00:10:28.577Z,0
2017-04-02T00:11:00.833Z,0
2017-04-02T00:11:33.085Z,0
2017-04-02T00:12:05.380Z,0
2017-04-02T00:12:37.698Z,0
2017-04-02T00:13:10.000Z,0
2017-04-02T00:13:42.306Z,0
2017-04-02T00:14:14.612Z,0
2017-04-02T00:14:46.922Z,0
2017-04-02T00:15:19.225Z,0
2017-04-02T00:15:51.545Z,0
2017-04-02T00:16:23.859Z,0
2017-04-02T00:16:56.175Z,0
2017-04-02T00:17:28.478Z,0
2017-04-02T00:18:00.773Z,0
2017-04-02T00:18:33.075Z,0
2017-04-02T00:19:05.378Z,0
2017-04-02T00:19:37.677Z,0
2017-04-02T00:20:09.991Z,0
2017-04-02T00:20:42.305Z,0
2017-04-02T00:21:14.620Z,0
2017-04-02T00:21:46.915Z,0
2017-04-02T00:22:19.226Z,0
2017-04-02T00:22:51.533Z,0
2017-04-02T00:23:23.832Z,0
2017-04-02T00:23:56.135Z,0
2017-04-02T00:24:28.442Z,0
2017-04-02T00:25:00.753Z,0
2017-04-02T00:25:33.048Z,0
2017-04-02T00:26:05.345Z,0
2017-04-02T00:26:37.650Z,0
2017-04-02T00:27:09.951Z,0
2017-04-02T00:27:42.252Z,0
2017-04-02T00:28:14.555Z,0
2017-04-02T00:28:46.893Z,0
2017-04-02T00:29:19.191Z,0
2017-04-02T00:29:51.499Z,0
2017-04-02T00:30:23.804Z,0
2017-04-02T00:30:56.101Z,0
2017-04-02T00:31:28.414Z,0
2017-04-02T00:32:00.717Z,0
2017-04-02T00:32:33.011Z,0
2017-04-02T00:33:05.305Z,0
2017-04-02T00:33:37.626Z,0
2017-04-02T00:34:09.926Z,0
2017-04-02T00:34:42.252Z,0
2017-04-02T00:35:14.561Z,0
2017-04-02T00:35:46.863Z,0
2017-04-02T00:36:19.162Z,0
2017-04-02T00:36:51.496Z,0
2017-04-02T00:37:23.796Z,0
2017-04-02T00:37:56.099Z,0
2017-04-02T00:38:28.422Z,0
2017-04-02T00:39:00.717Z,0
2017-04-02T00:39:33.029Z,0
2017-04-02T00:40:05.328Z,0
2017-04-02T00:40:37.640Z,0
2017-04-02T00:41:09.948Z,0
2017-04-02T00:41:42.258Z,0
2017-04-02T00:42:14.546Z,0
2017-04-02T00:42:46.914Z,0
2017-04-02T00:43:19.151Z,0
2017-04-02T00:43:51.407Z,0
2017-04-02T00:44:23.665Z,0
2017-04-02T00:44:57.323Z,0
2017-04-02T00:45:29.578Z,0
2017-04-02T00:46:01.833Z,0
2017-04-02T00:46:34.058Z,0
2017-04-02T00:47:06.344Z,0
2017-04-02T00:47:38.636Z,0
2017-04-02T00:48:10.904Z,0
2017-04-02T00:48:43.164Z,0
2017-04-02T00:49:15.413Z,0
2017-04-02T00:49:47.662Z,0
2017-04-02T00:50:19.895Z,0
2017-04-02T00:50:52.280Z,0
2017-04-02T00:51:24.510Z,0
2017-04-02T00:51:56.786Z,0
2017-04-02T00:52:29.088Z,0
2017-04-02T00:53:01.392Z,0
2017-04-02T00:53:33.747Z,0
2017-04-02T00:54:06.075Z,0
2017-04-02T00:54:38.375Z,0
2017-04-02T00:55:10.730Z,0
2017-04-02T00:55:43.035Z,0
2017-04-02T00:56:15.342Z,0
2017-04-02T00:56:47.649Z,0
2017-04-02T00:57:19.980Z,0
2017-04-02T00:57:52.287Z,0
2017-04-02T00:58:24.610Z,0
2017-04-02T00:58:56.910Z,0
2017-04-02T00:59:29.212Z,0
2017-04-02T01:00:01.520Z,0
2017-04-02T01:00:33.816Z,0
2017-04-02T01:01:06.138Z,0
2017-04-02T01:01:38.488Z,0
2017-04-02T01:02:10.790Z,0
2017-04-02T01:02:43.099Z,0
2017-04-02T01:03:15.401Z,0
2017-04-02T01:03:47.703Z,0
2017-04-02T01:04:20.001Z,0
2017-04-02T01:04:52.295Z,0
2017-04-02T01:05:24.596Z,0
2017-04-02T01:05:56.897Z,0
2017-04-02T01:06:29.203Z,0
2017-04-02T01:07:01.507Z,0
2017-04-02T01:07:33.808Z,0
2017-04-02T01:08:06.107Z,0
2017-04-02T01:08:38.411Z,0
2017-04-02T01:09:10.715Z,0
2017-04-02T01:09:43.021Z,0
2017-04-02T01:10:15.356Z,0
2017-04-02T01:10:47.652Z,0
2017-04-02T01:11:19.964Z,0
2017-04-02T01:11:52.282Z,0
2017-04-02T01:12:24.619Z,0
2017-04-02T01:12:56.920Z,0
2017-04-02T01:13:29.232Z,0
2017-04-02T01:14:01.553Z,0
2017-04-02T01:14:33.850Z,0
2017-04-02T01:15:06.141Z,0
2017-04-02T01:15:38.450Z,0
2017-04-02T01:16:10.764Z,0
2017-04-02T01:16:43.068Z,0
2017-04-02T01:17:15.378Z,0
2017-04-02T01:17:47.692Z,0
2017-04-02T01:18:20.019Z,0
2017-04-02T01:18:52.323Z,0
2017-04-02T01:19:24.629Z,0
2017-04-02T01:19:56.929Z,0
2017-04-02T01:20:29.240Z,0
2017-04-02T01:21:01.548Z,0
2017-04-02T01:21:33.858Z,0
2017-04-02T01:22:06.175Z,0
2017-04-02T01:22:38.485Z,0
2017-04-02T01:23:10.785Z,0
2017-04-02T01:23:43.103Z,0
2017-04-02T01:24:15.400Z,0
2017-04-02T01:24:47.703Z,0
2017-04-02T01:25:20.035Z,0
2017-04-02T01:25:52.343Z,0
2017-04-02T01:26:24.643Z,0
2017-04-02T01:26:56.951Z,0
2017-04-02T01:27:29.249Z,0
2017-04-02T01:28:01.571Z,0
2017-04-02T01:28:33.875Z,0
2017-04-02T01:29:06.178Z,0
2017-04-02T01:29:38.478Z,0
2017-04-02T01:30:10.785Z,0
2017-04-02T01:30:43.085Z,0
2017-04-02T01:31:15.394Z,0
2017-04-02T01:31:47.710Z,0
2017-04-02T01:32:20.022Z,0
2017-04-02T01:32:52.378Z,0
2017-04-02T01:33:24.686Z,0
2017-04-02T01:33:57.006Z,0
2017-04-02T01:34:29.302Z,0
2017-04-02T01:35:01.616Z,0
2017-04-02T01:35:33.929Z,0
2017-04-02T01:36:06.222Z,0
2017-04-02T01:36:38.523Z,0
2017-04-02T01:37:10.826Z,0
2017-04-02T01:37:43.142Z,0
2017-04-02T01:38:15.457Z,0
2017-04-02T01:38:47.751Z,0
2017-04-02T01:39:20.049Z,0
2017-04-02T01:39:52.345Z,0
2017-04-02T01:40:24.645Z,0
2017-04-02T01:40:56.951Z,0
2017-04-02T01:41:29.253Z,0
2017-04-02T01:42:01.552Z,0
2017-04-02T01:42:33.853Z,0
2017-04-02T01:43:06.154Z,0
2017-04-02T01:43:38.460Z,0
2017-04-02T01:44:10.789Z,0
2017-04-02T01:44:43.104Z,0
2017-04-02T01:45:15.404Z,0
2017-04-02T01:45:47.705Z,0
2017-04-02T01:46:20.018Z,0
2017-04-02T01:46:52.314Z,0
2017-04-02T01:47:24.637Z,0
2017-04-02T01:47:56.943Z,0
2017-04-02T01:48:29.256Z,0
2017-04-02T01:49:01.579Z,0
2017-04-02T01:49:33.889Z,0
2017-04-02T01:50:06.180Z,0
2017-04-02T01:50:38.479Z,0
2017-04-02T01:51:10.787Z,0
2017-04-02T01:51:43.096Z,0
2017-04-02T01:52:15.395Z,0
2017-04-02T01:52:47.706Z,0
2017-04-02T01:53:20.026Z,0
2017-04-02T01:53:52.338Z,0
2017-04-02T01:54:24.634Z,0
2017-04-02T01:54:56.943Z,0
2017-04-02T01:55:29.237Z,0
2017-04-02T01:56:01.560Z,0
2017-04-02T01:56:33.861Z,0
2017-04-02T01:57:06.168Z,0
2017-04-02T01:57:38.464Z,0
2017-04-02T01:58:10.758Z,0
2017-04-02T01:58:43.070Z,0
2017-04-02T01:59:15.376Z,0
2017-04-02T01:59:47.678Z,0
2017-04-02T02:00:19.989Z,0
2017-04-02T02:00:52.297Z,0
2017-04-02T02:01:24.594Z,0
2017-04-02T02:01:56.909Z,0
2017-04-02T02:02:29.214Z,0
2017-04-02T02:03:01.537Z,0
2017-04-02T02:03:33.883Z,0
2017-04-02T02:04:06.180Z,0
2017-04-02T02:04:38.490Z,0
2017-04-02T02:05:10.801Z,0
2017-04-02T02:05:43.098Z,0
2017-04-02T02:06:15.426Z,0
2017-04-02T02:06:47.723Z,0
2017-04-02T02:07:20.032Z,0
2017-04-02T02:07:52.343Z,0
2017-04-02T02:08:24.646Z,0
2017-04-02T02:08:56.944Z,0
2017-04-02T02:09:29.247Z,0
2017-04-02T02:10:01.563Z,0
2017-04-02T02:10:33.874Z,0
2017-04-02T02:11:06.190Z,0
2017-04-02T02:11:38.493Z,0
2017-04-02T02:12:10.765Z,0
2017-04-02T02:12:43.027Z,0
2017-04-02T02:13:15.259Z,0
2017-04-02T02:13:48.273Z,0
2017-04-02T02:14:20.528Z,0
2017-04-02T02:14:53.264Z,0
2017-04-02T02:15:25.516Z,0
2017-04-02T02:15:57.771Z,0
2017-04-02T02:16:30.920Z,0
2017-04-02T02:17:03.167Z,0
2017-04-02T02:17:35.420Z,0
2017-04-02T02:18:07.664Z,0
2017-04-02T02:18:39.907Z,0
2017-04-02T02:19:12.157Z,0
2017-04-02T02:19:44.420Z,0
2017-04-02T02:20:16.746Z,0
2017-04-02T02:20:48.982Z,0
2017-04-02T02:21:21.267Z,0
2017-04-02T02:21:53.548Z,0
2017-04-02T02:22:25.844Z,0
2017-04-02T02:22:58.147Z,0
2017-04-02T02:23:30.450Z,0
2017-04-02T02:24:02.741Z,0
2017-04-02T02:24:35.049Z,0
2017-04-02T02:25:07.364Z,0
2017-04-02T02:25:39.669Z,0
2017-04-02T02:26:12.015Z,0
2017-04-02T02:26:44.322Z,0
2017-04-02T02:27:16.633Z,0
2017-04-02T02:27:48.941Z,0
2017-04-02T02:28:21.235Z,0
2017-04-02T02:28:53.538Z,0
2017-04-02T02:29:25.834Z,0
2017-04-02T02:29:58.143Z,0
2017-04-02T02:30:30.443Z,0
2017-04-02T02:31:02.764Z,0
2017-04-02T02:31:35.057Z,0
2017-04-02T02:32:07.358Z,0
2017-04-02T02:32:39.656Z,0
2017-04-02T02:33:11.962Z,0
2017-04-02T02:33:44.262Z,0
2017-04-02T02:34:16.572Z,0
2017-04-02T02:34:48.899Z,0
2017-04-02T02:35:21.210Z,0
2017-04-02T02:35:53.516Z,0
2017-04-02T02:36:25.824Z,0
2017-04-02T02:36:58.124Z,0
2017-04-02T02:37:30.424Z,0
2017-04-02T02:38:02.724Z,0
2017-04-02T02:38:35.036Z,0
2017-04-02T02:39:07.340Z,0
2017-04-02T02:39:39.666Z,0
2017-04-02T02:40:11.969Z,0
2017-04-02T02:40:44.275Z,0
2017-04-02T02:41:16.568Z,0
2017-04-02T02:41:48.872Z,0
2017-04-02T02:42:21.177Z,0
2017-04-02T02:42:53.478Z,0
2017-04-02T02:43:25.779Z,0
2017-04-02T02:43:58.126Z,0
2017-04-02T02:44:30.434Z,0
2017-04-02T02:45:02.723Z,0
2017-04-02T02:45:35.027Z,0
2017-04-02T02:46:07.339Z,0
2017-04-02T02:46:39.634Z,0
2017-04-02T02:47:11.938Z,0
2017-04-02T02:47:44.254Z,0
2017-04-02T02:48:16.557Z,0
2017-04-02T02:48:48.856Z,0
2017-04-02T02:49:21.182Z,0
2017-04-02T02:49:53.487Z,0
2017-04-02T02:50:25.788Z,0
2017-04-02T02:50:58.082Z,0
2017-04-02T02:51:30.384Z,0
2017-04-02T02:52:02.680Z,0
2017-04-02T02:52:34.969Z,0
2017-04-02T02:53:07.261Z,0
2017-04-02T02:53:39.572Z,0
2017-04-02T02:54:11.880Z,0
2017-04-02T02:54:44.190Z,0
2017-04-02T02:55:16.487Z,0
2017-04-02T02:55:48.784Z,0
2017-04-02T02:56:21.079Z,0
2017-04-02T02:56:53.373Z,0
2017-04-02T02:57:25.693Z,0
2017-04-02T02:57:58.059Z,0
2017-04-02T02:58:30.370Z,0
2017-04-02T02:59:02.683Z,0
2017-04-02T02:59:34.989Z,0
2017-04-02T03:00:07.302Z,0
2017-04-02T03:00:39.600Z,0
2017-04-02T03:01:11.901Z,0
2017-04-02T03:01:44.208Z,0
2017-04-02T03:02:16.516Z,0
2017-04-02T03:02:48.822Z,0
2017-04-02T03:03:21.144Z,0
2017-04-02T03:03:53.493Z,0
2017-04-02T03:04:25.800Z,0
2017-04-02T03:04:58.096Z,0
2017-04-02T03:05:30.409Z,0
2017-04-02T03:06:02.705Z,0
2017-04-02T03:06:35.001Z,0
2017-04-02T03:07:07.307Z,0
2017-04-02T03:07:39.601Z,0
2017-04-02T03:08:11.921Z,0
2017-04-02T03:08:44.223Z,0
2017-04-02T03:09:16.578Z,0
2017-04-02T03:09:48.885Z,0
2017-04-02T03:10:21.189Z,0
2017-04-02T03:10:53.542Z,0
2017-04-02T03:11:25.847Z,0
2017-04-02T03:11:58.155Z,0
2017-04-02T03:12:30.448Z,0
2017-04-02T03:13:02.753Z,0
2017-04-02T03:13:35.065Z,0
2017-04-02T03:14:07.385Z,0
2017-04-02T03:14:39.693Z,0
2017-04-02T03:15:11.999Z,0
2017-04-02T03:15:44.301Z,0
2017-04-02T03:16:16.608Z,0
2017-04-02T03:16:48.918Z,0
2017-04-02T03:17:21.227Z,0
2017-04-02T03:17:53.551Z,0
2017-04-02T03:18:25.856Z,0
2017-04-02T03:18:58.154Z,0
2017-04-02T03:19:30.469Z,0
2017-04-02T03:20:02.783Z,0
2017-04-02T03:20:35.090Z,0
2017-04-02T03:21:07.381Z,0
2017-04-02T03:21:39.685Z,0
2017-04-02T03:22:11.983Z,0
2017-04-02T03:22:44.299Z,0
2017-04-02T03:23:16.600Z,0
2017-04-02T03:23:48.952Z,0
2017-04-02T03:24:21.305Z,0
2017-04-02T03:24:53.602Z,0
2017-04-02T03:25:25.913Z,0
2017-04-02T03:25:58.226Z,0
2017-04-02T03:26:30.543Z,0
2017-04-02T03:27:02.854Z,0
2017-04-02T03:27:35.158Z,0
2017-04-02T03:28:07.471Z,0
2017-04-02T03:28:39.764Z,0
2017-04-02T03:29:12.053Z,0
2017-04-02T03:29:44.357Z,0
2017-04-02T03:30:16.658Z,0
2017-04-02T03:30:48.966Z,0
2017-04-02T03:31:21.280Z,0
2017-04-02T03:31:53.615Z,0
2017-04-02T03:32:25.915Z,0
2017-04-02T03:32:58.217Z,0
2017-04-02T03:33:30.511Z,0
2017-04-02T03:34:02.832Z,0
2017-04-02T03:34:35.139Z,0
2017-04-02T03:35:07.449Z,0
2017-04-02T03:35:39.759Z,0
2017-04-02T03:36:12.047Z,0
2017-04-02T03:36:44.347Z,0
2017-04-02T03:37:16.647Z,0
2017-04-02T03:37:48.944Z,0
2017-04-02T03:38:21.243Z,0
2017-04-02T03:38:53.550Z,0
2017-04-02T03:39:25.860Z,0
2017-04-02T03:39:58.165Z,0
2017-04-02T03:40:30.462Z,0
2017-04-02T03:41:02.772Z,0
2017-04-02T03:41:35.077Z,0
2017-04-02T03:42:07.369Z,0
2017-04-02T03:42:39.682Z,0
2017-04-02T03:43:11.983Z,0
2017-04-02T03:43:44.282Z,0
2017-04-02T03:44:16.579Z,0
2017-04-02T03:44:48.885Z,0
2017-04-02T03:45:21.192Z,0
2017-04-02T03:45:53.502Z,0
2017-04-02T03:46:25.811Z,0
2017-04-02T03:46:58.153Z,0
2017-04-02T03:47:30.472Z,0
2017-04-02T03:48:02.777Z,0
2017-04-02T03:48:35.071Z,0
2017-04-02T03:49:07.380Z,0
2017-04-02T03:49:39.689Z,0
2017-04-02T03:50:11.998Z,0
2017-04-02T03:50:44.307Z,0
2017-04-02T03:51:16.607Z,0
2017-04-02T03:51:48.905Z,0
2017-04-02T03:52:21.153Z,0
2017-04-02T03:52:53.400Z,0
2017-04-02T03:53:25.650Z,0
2017-04-02T03:53:58.465Z,0
2017-04-02T03:54:30.713Z,0
2017-04-02T03:55:02.958Z,0
2017-04-02T03:55:35.210Z,0
2017-04-02T03:56:07.470Z,0
2017-04-02T03:56:39.818Z,0
2017-04-02T03:57:12.063Z,0
2017-04-02T03:57:44.342Z,0
2017-04-02T03:58:16.607Z,0
2017-04-02T03:58:48.856Z,0
2017-04-02T03:59:21.231Z,0
2017-04-02T03:59:53.454Z,0
2017-04-02T04:00:26.800Z,0
2017-04-02T04:00:59.054Z,0
2017-04-02T04:01:31.334Z,0
2017-04-02T04:02:03.586Z,0
2017-04-02T04:02:35.832Z,0
2017-04-02T04:03:08.939Z,0
2017-04-02T04:03:41.206Z,0
2017-04-02T04:04:13.465Z,0
2017-04-02T04:04:45.717Z,0
2017-04-02T04:05:17.971Z,0
2017-04-02T04:05:50.218Z,0
2017-04-02T04:06:22.483Z,0
2017-04-02T04:06:54.738Z,0
2017-04-02T04:07:26.993Z,0
2017-04-02T04:07:59.238Z,0
2017-04-02T04:08:31.502Z,0
2017-04-02T04:09:03.730Z,0
2017-04-02T04:09:35.974Z,0
2017-04-02T04:10:08.213Z,0
2017-04-02T04:10:41.381Z,0
2017-04-02T04:11:13.620Z,0
2017-04-02T04:11:45.880Z,0
2017-04-02T04:12:18.170Z,0
2017-04-02T04:12:50.475Z,0
2017-04-02T04:13:22.786Z,0
2017-04-02T04:13:55.074Z,0
2017-04-02T04:14:27.385Z,0
2017-04-02T04:14:59.705Z,0
2017-04-02T04:15:32.071Z,0
2017-04-02T04:16:04.382Z,0
2017-04-02T04:16:36.692Z,0
2017-04-02T04:17:08.999Z,0
2017-04-02T04:17:41.307Z,0
2017-04-02T04:18:13.609Z,0
2017-04-02T04:18:45.905Z,0
2017-04-02T04:19:18.199Z,0
2017-04-02T04:19:50.524Z,0
2017-04-02T04:20:22.830Z,0
2017-04-02T04:20:55.128Z,0
2017-04-02T04:21:27.437Z,0
2017-04-02T04:21:59.731Z,0
2017-04-02T04:22:32.086Z,0
2017-04-02T04:23:04.347Z,0
2017-04-02T04:23:36.602Z,0
2017-04-02T04:24:08.845Z,0
2017-04-02T04:24:41.092Z,0
2017-04-02T04:25:13.332Z,0
2017-04-02T04:25:45.588Z,0
2017-04-02T04:26:17.838Z,0
2017-04-02T04:26:50.090Z,0
2017-04-02T04:27:22.354Z,0
2017-04-02T04:27:54.604Z,0
2017-04-02T04:28:27.817Z,0
2017-04-02T04:29:00.064Z,0
2017-04-02T04:29:32.332Z,0
2017-04-02T04:30:04.695Z,0
2017-04-02T04:30:36.946Z,0
2017-04-02T04:31:09.183Z,0
2017-04-02T04:31:41.438Z,0
2017-04-02T04:32:13.729Z,0
2017-04-02T04:32:46.037Z,0
2017-04-02T04:33:18.344Z,0
2017-04-02T04:33:50.640Z,0
2017-04-02T04:34:22.928Z,0
2017-04-02T04:34:55.229Z,0
2017-04-02T04:35:27.532Z,0
2017-04-02T04:35:59.835Z,0
2017-04-02T04:36:32.128Z,0
2017-04-02T04:37:04.435Z,0
2017-04-02T04:37:36.724Z,0
2017-04-02T04:38:09.032Z,0
2017-04-02T04:38:41.335Z,0
2017-04-02T04:39:13.636Z,0
2017-04-02T04:39:45.939Z,0
2017-04-02T04:40:18.289Z,0
2017-04-02T04:40:50.588Z,4
2017-04-02T04:41:22.915Z,4
2017-04-02T04:41:55.217Z,4
2017-04-02T04:42:27.531Z,4
2017-04-02T04:42:59.839Z,4
2017-04-02T04:43:32.154Z,4
2017-04-02T04:44:04.497Z,0
2017-04-02T04:44:36.798Z,4
2017-04-02T04:45:09.104Z,4
2017-04-02T04:45:41.412Z,4
2017-04-02T04:46:13.713Z,4
2017-04-02T04:46:46.026Z,4
2017-04-02T04:47:18.373Z,8
2017-04-02T04:47:50.663Z,4
2017-04-02T04:48:22.970Z,4
2017-04-02T04:48:55.277Z,4
2017-04-02T04:49:27.575Z,8
2017-04-02T04:49:59.893Z,8
2017-04-02T04:50:32.185Z,8
2017-04-02T04:51:04.482Z,8
2017-04-02T04:51:36.785Z,8
2017-04-02T04:52:09.093Z,8
2017-04-02T04:52:41.394Z,8
2017-04-02T04:53:13.699Z,12
2017-04-02T04:53:45.988Z,12
2017-04-02T04:54:18.282Z,12
2017-04-02T04:54:50.581Z,12
2017-04-02T04:55:22.883Z,12
2017-04-02T04:55:55.197Z,12
2017-04-02T04:56:27.499Z,16
2017-04-02T04:56:59.804Z,16
2017-04-02T04:57:32.107Z,16
2017-04-02T04:58:04.417Z,20
2017-04-02T04:58:36.732Z,20
2017-04-02T04:59:09.044Z,20
2017-04-02T04:59:41.346Z,20
2017-04-02T05:00:13.659Z,24
2017-04-02T05:00:45.961Z,24
2017-04-02T05:01:18.295Z,28
2017-04-02T05:01:50.606Z,24
2017-04-02T05:02:22.915Z,28
2017-04-02T05:02:55.230Z,28
2017-04-02T05:03:27.535Z,32
2017-04-02T05:03:59.838Z,32
2017-04-02T05:04:32.137Z,32
2017-04-02T05:05:04.482Z,32
2017-04-02T05:05:36.806Z,36
2017-04-02T05:06:09.100Z,36
2017-04-02T05:06:41.408Z,40
2017-04-02T05:07:13.715Z,40
2017-04-02T05:07:46.024Z,40
2017-04-02T05:08:18.314Z,44
2017-04-02T05:08:50.631Z,44
2017-04-02T05:09:22.943Z,48
2017-04-02T05:09:55.244Z,48
2017-04-02T05:10:27.547Z,52
2017-04-02T05:10:59.855Z,52
2017-04-02T05:11:32.159Z,56
2017-04-02T05:12:04.439Z,60
2017-04-02T05:12:36.701Z,60
2017-04-02T05:13:08.939Z,64
2017-04-02T05:13:41.901Z,64
2017-04-02T05:14:14.141Z,68
2017-04-02T05:14:46.396Z,68
2017-04-02T05:15:18.644Z,72
2017-04-02T05:15:50.935Z,72
2017-04-02T05:16:23.173Z,76
2017-04-02T05:16:56.335Z,76
2017-04-02T05:17:28.622Z,76
2017-04-02T05:18:00.880Z,80
2017-04-02T05:18:33.138Z,80
2017-04-02T05:19:05.394Z,88
2017-04-02T05:19:37.648Z,88
2017-04-02T05:20:10.799Z,92
2017-04-02T05:20:43.047Z,92
2017-04-02T05:21:15.297Z,96
2017-04-02T05:21:47.563Z,100
2017-04-02T05:22:19.856Z,100
2017-04-02T05:22:52.149Z,104
2017-04-02T05:23:24.467Z,108
2017-04-02T05:23:56.766Z,108
2017-04-02T05:24:29.055Z,112
2017-04-02T05:25:01.366Z,112
2017-04-02T05:25:33.670Z,120
2017-04-02T05:26:05.981Z,120
2017-04-02T05:26:38.283Z,124
2017-04-02T05:27:10.588Z,124
2017-04-02T05:27:42.934Z,128
2017-04-02T05:28:15.240Z,128
2017-04-02T05:28:47.553Z,136
2017-04-02T05:29:19.910Z,136
2017-04-02T05:29:52.228Z,140
2017-04-02T05:30:24.541Z,144
2017-04-02T05:30:56.840Z,148
2017-04-02T05:31:29.144Z,156
2017-04-02T05:32:01.459Z,160
2017-04-02T05:32:33.715Z,160
2017-04-02T05:33:06.006Z,164
2017-04-02T05:33:38.248Z,164
2017-04-02T05:34:10.492Z,168
2017-04-02T05:34:42.735Z,172
2017-04-02T05:35:15.837Z,176
2017-04-02T05:35:49.008Z,180
2017-04-02T05:36:21.978Z,180
2017-04-02T05:36:54.241Z,184
2017-04-02T05:37:26.491Z,188
2017-04-02T05:37:58.802Z,192
2017-04-02T05:38:31.062Z,196
2017-04-02T05:39:03.305Z,200
2017-04-02T05:39:35.552Z,200
2017-04-02T05:40:07.797Z,204
2017-04-02T05:40:40.051Z,208
2017-04-02T05:41:12.282Z,208
2017-04-02T05:41:44.548Z,212
2017-04-02T05:42:16.836Z,216
2017-04-02T05:42:49.146Z,216
2017-04-02T05:43:21.455Z,224
2017-04-02T05:43:53.756Z,224
2017-04-02T05:44:26.062Z,232
2017-04-02T05:44:58.361Z,232
2017-04-02T05:45:30.670Z,240
2017-04-02T05:46:02.986Z,240
2017-04-02T05:46:35.308Z,244
2017-04-02T05:47:07.608Z,248
2017-04-02T05:47:39.918Z,248
2017-04-02T05:48:12.223Z,252
2017-04-02T05:48:44.524Z,252
2017-04-02T05:49:16.817Z,252
2017-04-02T05:49:49.118Z,256
2017-04-02T05:50:21.413Z,256
2017-04-02T05:50:53.706Z,260
2017-04-02T05:51:26.030Z,260
2017-04-02T05:51:58.345Z,264
2017-04-02T05:52:30.643Z,268
2017-04-02T05:53:02.945Z,268
2017-04-02T05:53:35.245Z,272
2017-04-02T05:54:07.598Z,276
2017-04-02T05:54:39.911Z,276
2017-04-02T05:55:12.222Z,284
2017-04-02T05:55:44.533Z,284
2017-04-02T05:56:16.849Z,288
2017-04-02T05:56:49.148Z,292
2017-04-02T05:57:21.455Z,296
2017-04-02T05:57:53.767Z,300
2017-04-02T05:58:26.068Z,304
2017-04-02T05:58:58.381Z,308
2017-04-02T05:59:30.683Z,316
2017-04-02T06:00:02.996Z,316
2017-04-02T06:00:35.319Z,324
2017-04-02T06:01:07.636Z,328
2017-04-02T06:01:39.972Z,328
2017-04-02T06:02:12.273Z,336
2017-04-02T06:02:44.574Z,336
2017-04-02T06:03:16.869Z,340
2017-04-02T06:03:49.182Z,348
2017-04-02T06:04:21.485Z,348
2017-04-02T06:04:53.791Z,352
2017-04-02T06:05:26.100Z,356
2017-04-02T06:05:58.419Z,364
2017-04-02T06:06:30.734Z,364
2017-04-02T06:07:03.039Z,368
2017-04-02T06:07:35.337Z,372
2017-04-02T06:08:07.636Z,372
2017-04-02T06:08:39.923Z,376
2017-04-02T06:09:12.224Z,380
2017-04-02T06:09:44.516Z,384
2017-04-02T06:10:16.833Z,388
2017-04-02T06:10:49.142Z,388
2017-04-02T06:11:21.449Z,396
2017-04-02T06:11:53.753Z,400
2017-04-02T06:12:26.050Z,408
2017-04-02T06:12:58.371Z,412
2017-04-02T06:13:30.683Z,424
2017-04-02T06:14:02.986Z,436
2017-04-02T06:14:35.296Z,448
2017-04-02T06:15:07.600Z,460
2017-04-02T06:15:39.921Z,472
2017-04-02T06:16:12.239Z,480
2017-04-02T06:16:44.547Z,492
2017-04-02T06:17:16.835Z,500
2017-04-02T06:17:49.151Z,500
2017-04-02T06:18:21.441Z,508
2017-04-02T06:18:53.742Z,512
2017-04-02T06:19:26.053Z,520
2017-04-02T06:19:58.350Z,524
2017-04-02T06:20:30.653Z,536
2017-04-02T06:21:02.959Z,548
2017-04-02T06:21:35.309Z,556
2017-04-02T06:22:07.628Z,568
2017-04-02T06:22:39.936Z,580
2017-04-02T06:23:12.242Z,588
2017-04-02T06:23:44.574Z,600
2017-04-02T06:24:16.922Z,608
2017-04-02T06:24:49.222Z,620
2017-04-02T06:25:21.517Z,632
2017-04-02T06:25:53.837Z,640
2017-04-02T06:26:26.142Z,652
2017-04-02T06:26:58.449Z,664
2017-04-02T06:27:30.759Z,676
2017-04-02T06:28:03.074Z,684
2017-04-02T06:28:35.367Z,696
2017-04-02T06:29:07.688Z,708
2017-04-02T06:29:39.994Z,712
2017-04-02T06:30:12.294Z,712
2017-04-02T06:30:44.592Z,712
2017-04-02T06:31:16.895Z,704
2017-04-02T06:31:49.189Z,700
2017-04-02T06:32:21.428Z,688
2017-04-02T06:32:53.692Z,672
2017-04-02T06:33:25.936Z,660
2017-04-02T06:33:58.168Z,656
2017-04-02T06:34:30.975Z,652
2017-04-02T06:35:03.221Z,660
2017-04-02T06:35:35.469Z,672
2017-04-02T06:36:07.719Z,688
2017-04-02T06:36:39.950Z,716
2017-04-02T06:37:12.215Z,744
2017-04-02T06:37:45.473Z,780
2017-04-02T06:38:17.730Z,812
2017-04-02T06:38:50.019Z,836
2017-04-02T06:39:22.269Z,856
2017-04-02T06:39:54.512Z,876
2017-04-02T06:40:26.761Z,888
2017-04-02T06:40:59.937Z,900
2017-04-02T06:41:32.201Z,908
2017-04-02T06:42:04.490Z,920
2017-04-02T06:42:36.788Z,932
2017-04-02T06:43:09.091Z,944
2017-04-02T06:43:41.417Z,956
2017-04-02T06:44:13.720Z,964
2017-04-02T06:44:46.024Z,972
2017-04-02T06:45:18.319Z,980
2017-04-02T06:45:50.619Z,984
2017-04-02T06:46:22.930Z,988
2017-04-02T06:46:55.247Z,984
2017-04-02T06:47:27.546Z,980
2017-04-02T06:47:59.853Z,980
2017-04-02T06:48:32.158Z,980
2017-04-02T06:49:04.454Z,980
2017-04-02T06:49:36.751Z,976
2017-04-02T06:50:09.067Z,980
2017-04-02T06:50:41.376Z,980
2017-04-02T06:51:13.675Z,980
2017-04-02T06:51:45.973Z,980
2017-04-02T06:52:18.239Z,976
2017-04-02T06:52:50.476Z,980
2017-04-02T06:53:22.844Z,976
2017-04-02T06:53:55.073Z,968
2017-04-02T06:54:27.317Z,960
2017-04-02T06:54:59.601Z,948
2017-04-02T06:55:31.848Z,940
2017-04-02T06:56:04.079Z,940
2017-04-02T06:56:36.328Z,948
2017-04-02T06:57:08.569Z,960
2017-04-02T06:57:40.829Z,968
2017-04-02T06:58:13.099Z,984
2017-04-02T06:58:45.362Z,992
2017-04-02T06:59:18.480Z,996
2017-04-02T06:59:50.734Z,996
2017-04-02T07:00:22.996Z,996
2017-04-02T07:00:55.255Z,996
2017-04-02T07:01:27.551Z,1000
2017-04-02T07:01:59.956Z,1008
2017-04-02T07:02:32.264Z,1020
2017-04-02T07:03:04.577Z,1032
2017-04-02T07:03:36.874Z,1048
2017-04-02T07:04:09.173Z,1056
2017-04-02T07:04:41.486Z,1064
2017-04-02T07:05:13.796Z,1064
2017-04-02T07:05:46.105Z,1056
2017-04-02T07:06:18.448Z,1040
2017-04-02T07:06:50.753Z,1012
2017-04-02T07:07:23.063Z,980
2017-04-02T07:07:55.371Z,948
2017-04-02T07:08:27.679Z,916
2017-04-02T07:08:59.994Z,896
2017-04-02T07:09:32.301Z,892
2017-04-02T07:10:04.602Z,892
2017-04-02T07:10:36.900Z,892
2017-04-02T07:11:09.202Z,892
2017-04-02T07:11:41.511Z,896
2017-04-02T07:12:13.818Z,896
2017-04-02T07:12:46.110Z,900
2017-04-02T07:13:18.408Z,896
2017-04-02T07:13:50.704Z,904
2017-04-02T07:14:23.015Z,916
2017-04-02T07:14:55.320Z,932
2017-04-02T07:15:27.639Z,952
2017-04-02T07:15:59.933Z,972
2017-04-02T07:16:32.240Z,996
2017-04-02T07:17:04.576Z,1020
2017-04-02T07:17:36.893Z,1044
2017-04-02T07:18:09.190Z,1072
2017-04-02T07:18:41.501Z,1108
2017-04-02T07:19:13.801Z,1152
2017-04-02T07:19:46.099Z,1208
2017-04-02T07:20:18.396Z,1272
2017-04-02T07:20:50.690Z,1344
2017-04-02T07:21:22.998Z,1416
2017-04-02T07:21:55.278Z,1480
2017-04-02T07:22:27.629Z,1552
2017-04-02T07:23:00.555Z,1620
2017-04-02T07:23:32.795Z,1684
2017-04-02T07:24:05.066Z,1740
2017-04-02T07:24:37.319Z,1788
2017-04-02T07:25:09.576Z,1828
2017-04-02T07:25:41.819Z,1856
2017-04-02T07:26:14.085Z,1884
2017-04-02T07:26:46.330Z,1916
2017-04-02T07:27:18.707Z,1924
2017-04-02T07:27:51.857Z,1952
2017-04-02T07:28:25.059Z,1992
2017-04-02T07:28:57.323Z,2032
2017-04-02T07:29:29.587Z,2068
2017-04-02T07:30:01.837Z,2108
2017-04-02T07:30:34.096Z,2148
2017-04-02T07:31:06.448Z,2164
2017-04-02T07:31:38.706Z,2192
2017-04-02T07:32:10.985Z,2168
2017-04-02T07:32:43.276Z,2180
2017-04-02T07:33:15.586Z,2180
2017-04-02T07:33:47.891Z,2204
2017-04-02T07:34:20.196Z,2236
2017-04-02T07:34:52.516Z,2304
2017-04-02T07:35:24.821Z,2328
2017-04-02T07:35:57.123Z,2356
2017-04-02T07:36:29.435Z,2404
2017-04-02T07:37:01.752Z,2452
2017-04-02T07:37:34.065Z,2564
2017-04-02T07:38:06.363Z,2764
2017-04-02T07:38:38.661Z,3100
2017-04-02T07:39:10.976Z,3020
2017-04-02T07:39:43.289Z,2732
2017-04-02T07:40:15.592Z,2780
2017-04-02T07:40:47.895Z,2708
2017-04-02T07:41:20.205Z,2624
2017-04-02T07:41:52.515Z,2668
2017-04-02T07:42:24.808Z,2816
2017-04-02T07:42:57.110Z,2656
2017-04-02T07:43:29.410Z,2812
2017-04-02T07:44:01.708Z,2836
2017-04-02T07:44:34.028Z,2880
2017-04-02T07:45:06.341Z,3072